Time;durP1;ratioP1;P1;durP2;ratioP2;P2;SDS_P1;SDS_P2;PMS_P1;PMS_P2;Temp;Humidity;BMP_temperature;BMP_pressure;BME280_temperature;BME280_humidity;BME280_pressure;Samples;Min_cycle;Max_cycle;Signal;HPM_P1;HPM_P2
2024/02/04 00:00:29;;;;;;;0.83;0.70;;;10.40;99.90;;;;;;5018474;28;20251;-70
2024/02/04 00:02:54;;;;;;;1.00;0.70;;;10.50;99.90;;;;;;5018022;28;20412;-71
2024/02/04 00:05:20;;;;;;;1.20;0.63;;;10.50;99.90;;;;;;5017197;28;20544;-69
2024/02/04 00:07:46;;;;;;;0.90;0.70;;;10.40;99.90;;;;;;5016854;28;20175;-69
2024/02/04 00:10:12;;;;;;;0.83;0.60;;;10.50;99.90;;;;;;5017801;28;20172;-70
2024/02/04 00:12:39;;;;;;;0.80;0.60;;;10.50;99.90;;;;;;5017424;28;20209;-70
2024/02/04 00:15:05;;;;;;;0.93;0.60;;;10.70;99.90;;;;;;5017619;28;20329;-70
2024/02/04 00:17:32;;;;;;;0.90;0.60;;;10.60;99.90;;;;;;5015127;28;20428;-69
2024/02/04 00:19:59;;;;;;;1.27;0.57;;;10.30;99.90;;;;;;5017553;28;20460;-71
2024/02/04 00:22:25;;;;;;;1.20;0.80;;;10.40;99.90;;;;;;5017669;28;20403;-70
2024/02/04 00:24:50;;;;;;;1.33;0.60;;;10.40;99.90;;;;;;5017748;28;20414;-70
2024/02/04 00:27:16;;;;;;;0.90;0.60;;;10.30;99.90;;;;;;5016151;28;20215;-69
2024/02/04 00:29:41;;;;;;;1.50;0.57;;;10.20;99.90;;;;;;5017472;28;20215;-70
2024/02/04 00:32:07;;;;;;;0.80;0.60;;;10.20;99.90;;;;;;5018063;28;20178;-70
2024/02/04 00:34:33;;;;;;;0.80;0.50;;;10.10;99.90;;;;;;5018497;28;20691;-71
2024/02/04 00:37:00;;;;;;;1.00;0.60;;;10.00;99.90;;;;;;5016352;28;20214;-71
2024/02/04 00:39:25;;;;;;;0.93;0.70;;;9.80;99.90;;;;;;5016421;28;20193;-72
2024/02/04 00:41:51;;;;;;;0.70;0.60;;;9.90;99.90;;;;;;5015729;28;20839;-70
2024/02/04 00:44:16;;;;;;;1.10;0.60;;;10.00;99.90;;;;;;5017022;28;20173;-70
2024/02/04 00:46:42;;;;;;;0.90;0.70;;;9.80;99.90;;;;;;5016875;28;20235;-69
2024/02/04 00:49:08;;;;;;;0.70;0.40;;;9.90;99.90;;;;;;5016855;28;20177;-68
2024/02/04 00:51:33;;;;;;;0.73;0.50;;;9.80;99.90;;;;;;5016977;28;20170;-69
2024/02/04 00:53:59;;;;;;;1.37;1.03;;;9.80;99.90;;;;;;5016130;28;20203;-71
2024/02/04 00:56:24;;;;;;;1.33;0.70;;;10.00;99.90;;;;;;5016087;28;20272;-71
2024/02/04 00:58:51;;;;;;;0.77;0.50;;;9.90;99.90;;;;;;5016181;28;20169;-71
2024/02/04 01:01:17;;;;;;;0.80;0.60;;;10.00;99.90;;;;;;5016212;28;20189;-71
2024/02/04 01:03:42;;;;;;;0.90;0.60;;;9.90;99.90;;;;;;5015354;28;20406;-71
2024/02/04 01:06:08;;;;;;;0.80;0.50;;;10.00;99.90;;;;;;5016154;28;20178;-69
2024/02/04 01:08:34;;;;;;;0.70;0.47;;;10.00;99.90;;;;;;5016903;28;20666;-69
2024/02/04 01:11:00;;;;;;;0.90;0.70;;;9.90;99.90;;;;;;5016716;28;20161;-69
2024/02/04 01:13:27;;;;;;;1.67;0.60;;;9.80;99.90;;;;;;5016555;28;20416;-69
2024/02/04 01:15:53;;;;;;;1.00;0.80;;;10.00;99.90;;;;;;5015801;28;20242;-69
2024/02/04 01:18:18;;;;;;;0.80;0.50;;;10.10;99.90;;;;;;5016010;28;20416;-70
2024/02/04 01:20:44;;;;;;;0.83;0.50;;;9.90;99.90;;;;;;5015995;28;20598;-69
2024/02/04 01:23:10;;;;;;;1.00;0.60;;;9.80;99.90;;;;;;5016076;28;20166;-69
2024/02/04 01:25:35;;;;;;;0.90;0.60;;;9.80;99.90;;;;;;5015771;28;20207;-69
2024/02/04 01:28:01;;;;;;;0.70;0.47;;;9.90;99.90;;;;;;4996473;28;20227;-68
2024/02/04 01:30:28;;;;;;;0.70;0.40;;;9.90;99.90;;;;;;4995862;28;20193;-69
2024/02/04 01:32:53;;;;;;;0.70;0.47;;;9.90;99.90;;;;;;4996540;28;20230;-70
2024/02/04 01:35:20;;;;;;;0.80;0.60;;;9.80;99.90;;;;;;4996155;28;20446;-70
2024/02/04 01:37:48;;;;;;;0.70;0.50;;;9.80;99.90;;;;;;5013493;28;20196;-70
2024/02/04 01:40:14;;;;;;;1.23;0.60;;;9.60;99.90;;;;;;5016102;28;20472;-69
2024/02/04 01:42:40;;;;;;;5.63;1.30;;;9.50;99.90;;;;;;5015895;28;20424;-69
2024/02/04 01:45:05;;;;;;;0.97;0.63;;;9.50;99.90;;;;;;5014323;28;20412;-69
2024/02/04 01:47:31;;;;;;;1.10;0.70;;;9.50;99.90;;;;;;5015657;28;20247;-69
2024/02/04 01:49:57;;;;;;;1.20;0.60;;;9.60;99.90;;;;;;5015327;28;20190;-70
2024/02/04 01:52:23;;;;;;;0.80;0.60;;;9.60;99.90;;;;;;5015673;28;20702;-69
2024/02/04 01:54:50;;;;;;;0.80;0.50;;;9.70;99.90;;;;;;5015845;28;20217;-72
2024/02/04 01:57:17;;;;;;;0.93;0.60;;;9.60;99.90;;;;;;5015367;28;20230;-71
2024/02/04 01:59:42;;;;;;;0.93;0.73;;;9.70;99.90;;;;;;5014691;28;20420;-70
2024/02/04 02:02:08;;;;;;;1.50;0.60;;;9.70;99.90;;;;;;5014827;28;20420;-70
2024/02/04 02:04:34;;;;;;;0.90;0.60;;;9.80;99.90;;;;;;5016079;28;20173;-69
2024/02/04 02:07:00;;;;;;;0.80;0.57;;;9.70;99.90;;;;;;5015084;28;20746;-70
2024/02/04 02:09:26;;;;;;;0.80;0.60;;;9.70;99.90;;;;;;5015356;28;20223;-70
2024/02/04 02:12:03;;;;;;;0.90;0.60;;;9.50;99.90;;;;;;5014037;28;20413;-70
2024/02/04 02:14:34;;;;;;;0.97;0.70;;;9.50;99.90;;;;;;5014868;28;20445;-70
2024/02/04 02:17:05;;;;;;;1.17;0.73;;;9.40;99.90;;;;;;5015832;28;20440;-70
2024/02/04 02:19:47;;;;;;;0.77;0.60;;;9.50;99.90;;;;;;5015506;28;20890;-70
2024/02/04 02:22:28;;;;;;;0.70;0.50;;;9.60;99.90;;;;;;5012310;28;20769;-70
2024/02/04 02:24:57;;;;;;;1.00;0.70;;;9.60;99.90;;;;;;5015273;28;20449;-69
2024/02/04 02:27:22;;;;;;;0.70;0.50;;;9.70;99.90;;;;;;5014894;28;20543;-69
2024/02/04 02:29:48;;;;;;;0.90;0.60;;;9.60;99.90;;;;;;5014662;28;20442;-71
2024/02/04 02:32:14;;;;;;;1.10;0.70;;;9.80;99.90;;;;;;5014784;28;20176;-70
2024/02/04 02:34:41;;;;;;;0.80;0.50;;;9.80;99.90;;;;;;5015431;28;20199;-71
2024/02/04 02:37:12;;;;;;;0.83;0.60;;;10.00;99.90;;;;;;5013552;28;20625;-70
2024/02/04 02:39:48;;;;;;;0.83;0.60;;;10.10;99.90;;;;;;5014222;28;20892;-70
2024/02/04 02:42:16;;;;;;;0.80;0.60;;;10.10;99.90;;;;;;5015316;28;20470;-71
2024/02/04 02:44:44;;;;;;;0.70;0.50;;;10.10;99.90;;;;;;5014956;28;20413;-71
2024/02/04 02:47:11;;;;;;;0.70;0.50;;;10.20;99.90;;;;;;5013523;28;20427;-70
2024/02/04 02:49:37;;;;;;;1.00;0.60;;;10.00;99.90;;;;;;5015588;28;20463;-70
2024/02/04 02:52:03;;;;;;;0.73;0.53;;;10.00;99.90;;;;;;5015507;28;20497;-70
2024/02/04 02:54:28;;;;;;;0.80;0.60;;;10.10;99.90;;;;;;5014663;28;20774;-70
2024/02/04 02:56:54;;;;;;;0.80;0.57;;;10.20;99.90;;;;;;5014819;28;20198;-70
2024/02/04 02:59:19;;;;;;;0.73;0.53;;;10.30;99.90;;;;;;5014629;28;20163;-70
2024/02/04 03:01:45;;;;;;;0.70;0.57;;;10.30;99.90;;;;;;5014174;28;20168;-71
2024/02/04 03:04:10;;;;;;;0.70;0.50;;;10.30;99.90;;;;;;5014658;28;20183;-71
2024/02/04 03:06:36;;;;;;;0.70;0.50;;;10.20;99.90;;;;;;5014558;28;20191;-70
2024/02/04 03:09:01;;;;;;;0.80;0.50;;;10.30;99.90;;;;;;5014892;28;20175;-70
2024/02/04 03:11:27;;;;;;;0.80;0.50;;;10.20;99.90;;;;;;5012512;28;20174;-71
2024/02/04 03:13:53;;;;;;;0.70;0.50;;;10.20;99.90;;;;;;5013726;28;20167;-71
2024/02/04 03:16:18;;;;;;;0.80;0.50;;;9.90;99.90;;;;;;5014143;28;20267;-71
2024/02/04 03:18:45;;;;;;;0.80;0.60;;;9.80;99.90;;;;;;5012624;28;20179;-70
2024/02/04 03:21:15;;;;;;;0.70;0.50;;;9.90;99.90;;;;;;5014349;28;20170;-70
2024/02/04 03:23:42;;;;;;;1.10;0.60;;;10.00;99.90;;;;;;5014151;28;20771;-71
2024/02/04 03:26:09;;;;;;;0.97;0.70;;;10.10;99.90;;;;;;5013678;28;20444;-71
2024/02/04 03:28:34;;;;;;;1.27;0.57;;;10.20;99.90;;;;;;5013903;28;20787;-71
2024/02/04 03:31:00;;;;;;;0.70;0.50;;;10.10;99.90;;;;;;5012334;28;20414;-71
2024/02/04 03:33:25;;;;;;;0.80;0.50;;;10.10;99.90;;;;;;5013579;28;20163;-71
2024/02/04 03:35:51;;;;;;;0.70;0.50;;;10.10;99.90;;;;;;5012366;28;20210;-71
2024/02/04 03:38:17;;;;;;;0.70;0.50;;;10.00;99.90;;;;;;5013888;28;20644;-71
2024/02/04 03:40:42;;;;;;;1.03;0.70;;;9.90;99.90;;;;;;5014093;28;20222;-69
2024/02/04 03:43:09;;;;;;;0.80;0.57;;;10.00;99.90;;;;;;5012127;28;20172;-69
2024/02/04 03:45:37;;;;;;;0.70;0.50;;;9.90;99.90;;;;;;5013237;28;20321;-69
2024/02/04 03:48:03;;;;;;;0.70;0.57;;;9.90;99.90;;;;;;5012115;28;20425;-69
2024/02/04 03:50:29;;;;;;;0.70;0.50;;;9.90;99.90;;;;;;5013675;28;20418;-69
2024/02/04 03:52:54;;;;;;;0.90;0.63;;;10.00;99.90;;;;;;5013530;28;20509;-69
2024/02/04 03:55:20;;;;;;;0.70;0.50;;;10.00;99.90;;;;;;5013124;28;20235;-69
2024/02/04 03:57:47;;;;;;;0.70;0.50;;;9.90;99.90;;;;;;5013366;28;20182;-69
2024/02/04 04:00:13;;;;;;;0.70;0.50;;;9.90;99.90;;;;;;5012120;28;20178;-72
2024/02/04 04:02:38;;;;;;;1.13;0.50;;;9.90;99.90;;;;;;5013121;28;20786;-69
2024/02/04 04:05:04;;;;;;;1.53;0.53;;;9.90;99.90;;;;;;5013443;28;20218;-69
2024/02/04 04:07:30;;;;;;;0.80;0.60;;;9.60;99.90;;;;;;5013327;28;20197;-70
2024/02/04 04:09:56;;;;;;;1.10;0.67;;;9.70;99.90;;;;;;5012019;28;20422;-70
2024/02/04 04:12:21;;;;;;;0.90;0.50;;;9.70;99.90;;;;;;5013348;28;20256;-69
2024/02/04 04:14:47;;;;;;;0.70;0.50;;;9.50;99.90;;;;;;5013922;28;20616;-71
2024/02/04 04:17:12;;;;;;;0.90;0.60;;;9.60;99.90;;;;;;5013022;28;20188;-70
2024/02/04 04:19:39;;;;;;;0.70;0.50;;;9.60;99.90;;;;;;5013111;28;20693;-71
2024/02/04 04:22:05;;;;;;;0.97;0.57;;;9.90;99.90;;;;;;5012332;28;20644;-70
2024/02/04 04:24:30;;;;;;;1.00;0.60;;;9.90;99.90;;;;;;4997203;28;20418;-71
2024/02/04 04:26:56;;;;;;;0.80;0.50;;;10.00;99.90;;;;;;5019221;23;20224;-68
2024/02/04 04:29:21;;;;;;;1.30;0.80;;;9.90;99.90;;;;;;4996772;28;20644;-67
2024/02/04 04:31:48;;;;;;;0.87;0.70;;;10.10;99.90;;;;;;4996479;28;20702;-68
2024/02/04 04:34:13;;;;;;;1.00;0.60;;;10.20;99.90;;;;;;4996646;28;20229;-68
2024/02/04 04:36:39;;;;;;;0.90;0.60;;;10.20;99.90;;;;;;4996469;28;20443;-68
2024/02/04 04:39:05;;;;;;;1.13;0.40;;;10.20;99.90;;;;;;4996463;28;20172;-68
2024/02/04 04:41:31;;;;;;;0.70;0.50;;;10.10;99.90;;;;;;4996244;28;20196;-68
2024/02/04 04:43:56;;;;;;;0.70;0.50;;;10.20;99.90;;;;;;4996070;28;20218;-69
2024/02/04 04:46:22;;;;;;;0.70;0.60;;;10.30;99.90;;;;;;4993361;28;20436;-69
2024/02/04 04:48:47;;;;;;;0.70;0.40;;;10.30;99.90;;;;;;4977192;28;20647;-69
2024/02/04 04:51:13;;;;;;;0.90;0.63;;;10.30;99.90;;;;;;4976551;28;20557;-68
2024/02/04 04:53:38;;;;;;;0.83;0.60;;;10.30;99.90;;;;;;4975304;28;20175;-69
2024/02/04 04:56:04;;;;;;;0.70;0.50;;;10.30;99.90;;;;;;4976495;28;20208;-70
2024/02/04 04:58:30;;;;;;;1.03;0.60;;;10.20;99.90;;;;;;4992632;28;20582;-69
2024/02/04 05:00:55;;;;;;;0.80;0.50;;;10.20;99.90;;;;;;4996221;28;20499;-70
2024/02/04 05:03:21;;;;;;;2.73;0.57;;;10.20;99.90;;;;;;4996128;28;20203;-69
2024/02/04 05:05:47;;;;;;;0.70;0.50;;;10.30;99.90;;;;;;4995957;28;20180;-69
2024/02/04 05:08:14;;;;;;;0.73;0.57;;;10.40;99.90;;;;;;4978003;28;20179;-69
2024/02/04 05:10:40;;;;;;;0.80;0.50;;;10.40;99.90;;;;;;4976447;28;20683;-69
2024/02/04 05:13:06;;;;;;;0.80;0.60;;;10.30;99.90;;;;;;4976519;28;20413;-69
2024/02/04 05:15:34;;;;;;;1.07;0.50;;;10.10;99.90;;;;;;4976085;28;20672;-70
2024/02/04 05:18:00;;;;;;;1.10;0.80;;;10.30;99.90;;;;;;4992435;28;21013;-69
2024/02/04 05:20:25;;;;;;;1.83;0.70;;;10.10;99.90;;;;;;4996708;28;20433;-69
2024/02/04 05:22:51;;;;;;;1.90;0.60;;;10.10;99.90;;;;;;4996001;28;20179;-68
2024/02/04 05:25:17;;;;;;;0.80;0.50;;;10.20;99.90;;;;;;4995754;28;20229;-69
2024/02/04 05:27:42;;;;;;;0.80;0.50;;;10.20;99.90;;;;;;4987667;28;20263;-70
2024/02/04 05:30:08;;;;;;;0.70;0.50;;;10.00;99.90;;;;;;4986037;28;20668;-70
2024/02/04 05:32:34;;;;;;;1.93;0.70;;;10.00;99.90;;;;;;4985992;28;20192;-69
2024/02/04 05:34:59;;;;;;;1.10;0.87;;;10.00;99.90;;;;;;4985253;28;20554;-69
2024/02/04 05:37:25;;;;;;;1.20;0.90;;;10.10;99.90;;;;;;4985558;28;20196;-70
2024/02/04 05:39:50;;;;;;;0.80;0.63;;;10.10;99.90;;;;;;4985865;28;20185;-69
2024/02/04 05:42:16;;;;;;;0.80;0.60;;;9.90;99.90;;;;;;4985676;28;20183;-71
2024/02/04 05:44:41;;;;;;;0.70;0.50;;;9.90;99.90;;;;;;4984418;28;20558;-69
2024/02/04 05:47:07;;;;;;;1.03;0.60;;;9.80;99.90;;;;;;4985438;28;21192;-71
2024/02/04 05:49:32;;;;;;;0.80;0.60;;;9.70;99.90;;;;;;4985505;28;20231;-71
2024/02/04 05:51:58;;;;;;;0.70;0.50;;;9.90;99.90;;;;;;4985643;28;20186;-71
2024/02/04 05:54:23;;;;;;;0.70;0.50;;;9.90;99.90;;;;;;4985249;28;20202;-70
2024/02/04 05:56:49;;;;;;;1.37;0.53;;;9.90;99.90;;;;;;4985354;28;20246;-71
2024/02/04 05:59:16;;;;;;;0.87;0.50;;;10.00;99.90;;;;;;4985275;28;21135;-71
2024/02/04 06:01:42;;;;;;;0.70;0.50;;;10.10;99.90;;;;;;4985505;28;20178;-71
2024/02/04 06:04:08;;;;;;;0.80;0.50;;;10.10;99.90;;;;;;4985281;28;20558;-71
2024/02/04 06:06:33;;;;;;;0.70;0.50;;;10.10;99.90;;;;;;4985511;28;20520;-71
2024/02/04 06:08:59;;;;;;;0.80;0.50;;;10.10;99.90;;;;;;4985137;28;20575;-71
2024/02/04 06:11:25;;;;;;;0.70;0.50;;;10.10;99.90;;;;;;4985202;28;20188;-71
2024/02/04 06:13:50;;;;;;;0.80;0.50;;;10.10;99.90;;;;;;4984756;28;20929;-71
2024/02/04 06:16:16;;;;;;;0.67;0.40;;;10.10;99.90;;;;;;4985290;28;20383;-70
2024/02/04 06:18:42;;;;;;;0.97;0.60;;;10.00;99.90;;;;;;4984828;28;20203;-71
2024/02/04 06:21:08;;;;;;;0.70;0.50;;;9.80;99.90;;;;;;4984961;28;20508;-71
2024/02/04 06:23:34;;;;;;;1.17;0.60;;;9.70;99.90;;;;;;4985179;28;20236;-71
2024/02/04 06:26:00;;;;;;;0.83;0.60;;;9.90;99.90;;;;;;4984841;28;20197;-71
2024/02/04 06:28:26;;;;;;;1.07;0.63;;;9.90;99.90;;;;;;4984987;28;20411;-71
2024/02/04 06:30:51;;;;;;;1.30;0.60;;;10.00;99.90;;;;;;4984805;28;20478;-71
2024/02/04 06:33:17;;;;;;;1.00;0.70;;;9.90;99.90;;;;;;4985156;28;20598;-70
2024/02/04 06:35:43;;;;;;;0.70;0.40;;;10.00;99.90;;;;;;4983502;28;20637;-69
2024/02/04 06:38:08;;;;;;;0.70;0.40;;;10.10;99.90;;;;;;4984748;28;20192;-70
2024/02/04 06:40:34;;;;;;;0.70;0.50;;;10.10;99.90;;;;;;4983289;28;20282;-70
2024/02/04 06:42:59;;;;;;;0.80;0.50;;;10.10;99.90;;;;;;4984879;28;20206;-70
2024/02/04 06:45:25;;;;;;;0.73;0.47;;;10.00;99.90;;;;;;4984902;28;20185;-70
2024/02/04 06:47:50;;;;;;;0.70;0.50;;;9.90;99.90;;;;;;4984081;28;20575;-71
2024/02/04 06:50:16;;;;;;;0.90;0.60;;;9.90;99.90;;;;;;4984807;28;20242;-70
2024/02/04 06:52:43;;;;;;;1.10;0.80;;;9.90;99.90;;;;;;4984391;28;20180;-69
2024/02/04 06:55:09;;;;;;;0.77;0.60;;;9.90;99.90;;;;;;4984518;28;20447;-70
2024/02/04 06:57:35;;;;;;;0.80;0.50;;;9.90;99.90;;;;;;4984505;28;20473;-71
2024/02/04 07:00:01;;;;;;;1.00;0.60;;;9.80;99.90;;;;;;4983772;28;20455;-70
2024/02/04 07:02:26;;;;;;;0.70;0.40;;;9.90;99.90;;;;;;4983756;28;20554;-70
2024/02/04 07:04:52;;;;;;;0.70;0.50;;;9.80;99.90;;;;;;4984906;28;20207;-70
2024/02/04 07:07:18;;;;;;;0.80;0.60;;;9.90;99.90;;;;;;4984931;28;20283;-70
2024/02/04 07:09:44;;;;;;;0.90;0.50;;;9.70;99.90;;;;;;4985656;28;20517;-70
2024/02/04 07:12:09;;;;;;;0.90;0.60;;;9.60;99.90;;;;;;4984274;28;20199;-70
2024/02/04 07:14:35;;;;;;;0.90;0.57;;;9.60;99.90;;;;;;4984618;28;20568;-70
2024/02/04 07:17:00;;;;;;;0.70;0.50;;;9.60;99.90;;;;;;4984332;28;20199;-70
2024/02/04 07:19:26;;;;;;;1.10;0.80;;;9.50;99.90;;;;;;4984225;28;20187;-71
2024/02/04 07:21:51;;;;;;;0.77;0.60;;;9.50;99.90;;;;;;4984649;28;20258;-71
2024/02/04 07:24:18;;;;;;;1.00;0.50;;;9.50;99.90;;;;;;4984068;28;20656;-70
2024/02/04 07:26:45;;;;;;;1.00;0.60;;;9.50;99.90;;;;;;4989053;28;20789;-68
2024/02/04 07:29:11;;;;;;;0.70;0.50;;;9.50;99.90;;;;;;4993540;28;20825;-69
2024/02/04 07:31:37;;;;;;;0.70;0.50;;;9.40;99.90;;;;;;4993773;28;20459;-69
2024/02/04 07:34:03;;;;;;;0.80;0.50;;;9.40;99.90;;;;;;4993681;28;20413;-69
2024/02/04 07:36:29;;;;;;;1.40;1.20;;;9.30;99.90;;;;;;4993420;28;20185;-69
2024/02/04 07:38:54;;;;;;;0.90;0.60;;;9.30;99.90;;;;;;4994423;28;20481;-68
2024/02/04 07:41:20;;;;;;;0.80;0.70;;;9.30;99.90;;;;;;4993453;28;20534;-68
2024/02/04 07:43:47;;;;;;;1.60;1.00;;;9.30;99.90;;;;;;4993392;28;20198;-69
2024/02/04 07:46:13;;;;;;;0.80;0.63;;;9.40;99.90;;;;;;4993556;28;20196;-69
2024/02/04 07:48:39;;;;;;;1.20;0.83;;;9.40;99.90;;;;;;4975033;28;20424;-69
2024/02/04 07:51:06;;;;;;;0.80;0.60;;;9.50;99.90;;;;;;4973858;28;20423;-69
2024/02/04 07:53:31;;;;;;;0.90;0.70;;;9.50;99.90;;;;;;4973756;28;20261;-69
2024/02/04 07:55:57;;;;;;;0.80;0.60;;;9.60;99.90;;;;;;4973634;28;20568;-68
2024/02/04 07:58:23;;;;;;;0.70;0.53;;;9.60;99.90;;;;;;4990229;28;20239;-69
2024/02/04 08:00:48;;;;;;;1.00;0.60;;;9.70;99.90;;;;;;4997260;28;20172;-68
2024/02/04 08:03:14;;;;;;;1.33;1.00;;;9.70;99.90;;;;;;4997172;28;20174;-68
2024/02/04 08:05:39;;;;;;;0.80;0.60;;;9.80;99.90;;;;;;4997129;28;20253;-69
2024/02/04 08:08:05;;;;;;;0.80;0.57;;;9.90;99.90;;;;;;4983021;28;20647;-70
2024/02/04 08:10:31;;;;;;;0.90;0.60;;;9.90;99.90;;;;;;4977455;28;20255;-68
2024/02/04 08:12:56;;;;;;;0.90;0.60;;;9.90;99.90;;;;;;4986566;28;20206;-69
2024/02/04 08:15:22;;;;;;;2.07;0.70;;;9.90;99.90;;;;;;4980488;28;20199;-69
2024/02/04 08:17:48;;;;;;;0.73;0.60;;;9.90;99.90;;;;;;4988710;28;20562;-69
2024/02/04 08:20:13;;;;;;;0.90;0.67;;;9.90;99.90;;;;;;4996576;28;20487;-70
2024/02/04 08:22:39;;;;;;;1.20;0.70;;;9.70;99.90;;;;;;4995461;28;20178;-70
2024/02/04 08:25:05;;;;;;;1.67;0.90;;;9.90;99.90;;;;;;4995396;28;20184;-70
2024/02/04 08:27:31;;;;;;;1.00;0.70;;;10.00;99.90;;;;;;4987187;28;20700;-70
2024/02/04 08:29:57;;;;;;;1.00;0.70;;;10.00;99.90;;;;;;4977083;28;20464;-70
2024/02/04 08:32:22;;;;;;;1.10;0.73;;;9.90;99.90;;;;;;4977007;28;20181;-70
2024/02/04 08:34:48;;;;;;;0.90;0.73;;;10.00;99.90;;;;;;4977043;28;20200;-70
2024/02/04 08:37:13;;;;;;;1.10;0.70;;;9.90;99.90;;;;;;4983960;28;20306;-70
2024/02/04 08:39:39;;;;;;;0.80;0.60;;;10.10;99.90;;;;;;4990585;28;20584;-70
2024/02/04 08:42:05;;;;;;;1.23;0.70;;;10.30;99.90;;;;;;4996563;28;20176;-70
2024/02/04 08:44:31;;;;;;;0.90;0.80;;;10.40;99.90;;;;;;4996529;28;20168;-70
2024/02/04 08:46:56;;;;;;;3.50;1.37;;;10.60;99.90;;;;;;4996204;28;20208;-70
2024/02/04 08:49:22;;;;;;;1.00;0.70;;;10.70;99.90;;;;;;4996284;28;20176;-70
2024/02/04 08:51:47;;;;;;;0.97;0.80;;;10.80;99.90;;;;;;4983335;28;20174;-70
2024/02/04 08:54:13;;;;;;;1.23;0.93;;;10.80;99.90;;;;;;4979081;28;20707;-70
2024/02/04 08:56:38;;;;;;;1.10;1.00;;;10.80;99.90;;;;;;4976548;28;20218;-69
2024/02/04 08:59:05;;;;;;;1.00;0.87;;;10.80;99.90;;;;;;4976595;28;20181;-70
2024/02/04 09:01:31;;;;;;;1.30;0.90;;;10.90;99.90;;;;;;4986912;28;20205;-70
2024/02/04 09:03:57;;;;;;;0.87;0.80;;;11.00;99.90;;;;;;4995872;28;20438;-70
2024/02/04 09:06:22;;;;;;;0.80;0.60;;;11.10;99.90;;;;;;4996072;28;20192;-69
2024/02/04 09:08:48;;;;;;;1.10;0.73;;;11.20;99.90;;;;;;4996139;28;20624;-69
2024/02/04 09:11:18;;;;;;;1.17;0.60;;;11.30;99.90;;;;;;4987163;28;20179;-70
2024/02/04 09:13:44;;;;;;;1.00;0.90;;;11.40;99.90;;;;;;4976367;28;20626;-70
2024/02/04 09:16:10;;;;;;;0.93;0.60;;;11.40;99.90;;;;;;4976375;28;20793;-69
2024/02/04 09:18:36;;;;;;;1.40;0.67;;;11.30;99.90;;;;;;4976511;28;20420;-70
2024/02/04 09:21:02;;;;;;;0.80;0.60;;;11.30;99.90;;;;;;4986874;28;20177;-69
2024/02/04 09:23:27;;;;;;;1.20;0.80;;;11.30;99.90;;;;;;4995877;28;20420;-70
2024/02/04 09:25:53;;;;;;;0.80;0.60;;;11.40;99.90;;;;;;4995380;28;20186;-70
2024/02/04 09:28:18;;;;;;;0.80;0.50;;;11.50;99.90;;;;;;4995521;28;20169;-70
2024/02/04 09:30:44;;;;;;;0.70;0.50;;;11.50;99.90;;;;;;4995505;28;20271;-70
2024/02/04 09:33:10;;;;;;;1.10;0.80;;;11.60;99.90;;;;;;4995363;28;20649;-70
2024/02/04 09:35:35;;;;;;;1.27;0.70;;;11.70;99.90;;;;;;4995195;28;20203;-70
2024/02/04 09:38:01;;;;;;;0.80;0.70;;;12.00;99.90;;;;;;4995114;28;20223;-68
2024/02/04 09:40:26;;;;;;;1.63;1.00;;;12.00;99.90;;;;;;4995364;28;20174;-70
2024/02/04 09:42:53;;;;;;;0.90;0.50;;;12.10;99.90;;;;;;4995449;28;20631;-69
2024/02/04 09:45:20;;;;;;;0.90;0.70;;;11.70;99.90;;;;;;4995921;28;20180;-69
2024/02/04 09:47:45;;;;;;;2.80;1.13;;;11.50;99.90;;;;;;4994999;28;20429;-70
2024/02/04 09:50:11;;;;;;;0.90;0.70;;;11.70;99.90;;;;;;4995283;28;20471;-70
2024/02/04 09:52:43;;;;;;;1.60;0.90;;;11.70;99.90;;;;;;4975787;28;20213;-69
2024/02/04 09:55:12;;;;;;;1.13;0.80;;;12.00;99.90;;;;;;4975427;28;20258;-69
2024/02/04 09:57:38;;;;;;;0.87;0.60;;;12.10;99.90;;;;;;4975308;28;20435;-69
2024/02/04 10:00:05;;;;;;;1.10;0.57;;;12.20;99.90;;;;;;4975397;28;20415;-70
2024/02/04 10:02:32;;;;;;;0.80;0.50;;;12.40;99.90;;;;;;4993778;28;20913;-68
2024/02/04 10:04:58;;;;;;;1.10;0.53;;;12.20;99.90;;;;;;4994655;28;20412;-70
2024/02/04 10:07:24;;;;;;;0.80;0.60;;;12.00;99.90;;;;;;4993990;28;20435;-70
2024/02/04 10:09:50;;;;;;;1.33;0.80;;;12.10;99.90;;;;;;4994379;28;20187;-70
2024/02/04 10:12:17;;;;;;;0.80;0.60;;;12.10;99.90;;;;;;4994600;28;20179;-71
2024/02/04 10:14:42;;;;;;;0.73;0.40;;;11.90;99.90;;;;;;4992189;28;20448;-70
2024/02/04 10:17:08;;;;;;;0.77;0.50;;;11.80;99.90;;;;;;4975129;28;20432;-70
2024/02/04 10:19:35;;;;;;;0.80;0.50;;;11.80;99.90;;;;;;4991236;28;20288;-69
2024/02/04 10:22:01;;;;;;;0.80;0.50;;;11.90;99.90;;;;;;4993485;28;20495;-70
2024/02/04 10:24:28;;;;;;;0.97;0.67;;;12.20;99.90;;;;;;4994523;28;20179;-69
2024/02/04 10:26:55;;;;;;;0.80;0.60;;;12.60;99.90;;;;;;5018580;23;21020;-72
2024/02/04 10:29:22;;;;;;;0.90;0.50;;;13.00;99.90;;;;;;4995400;28;20467;-71
2024/02/04 10:31:48;;;;;;;0.90;0.60;;;13.20;99.90;;;;;;4995634;28;20399;-71
2024/02/04 10:34:14;;;;;;;0.97;0.50;;;13.00;99.90;;;;;;4995633;28;20763;-70
2024/02/04 10:36:39;;;;;;;1.00;0.70;;;13.20;99.90;;;;;;4996098;28;20283;-70
2024/02/04 10:39:06;;;;;;;1.17;0.50;;;13.40;99.90;;;;;;4995518;28;20537;-71
2024/02/04 10:41:35;;;;;;;0.70;0.50;;;13.50;99.90;;;;;;4995558;28;20176;-71
2024/02/04 10:44:04;;;;;;;0.90;0.50;;;13.30;99.90;;;;;;4994077;28;20465;-71
2024/02/04 10:46:30;;;;;;;0.80;0.50;;;13.40;99.90;;;;;;4993194;28;20439;-71
2024/02/04 10:48:59;;;;;;;0.90;0.50;;;13.60;99.90;;;;;;4984929;28;20883;-71
2024/02/04 10:51:26;;;;;;;0.90;0.60;;;13.90;99.90;;;;;;4974405;28;20436;-71
2024/02/04 10:53:55;;;;;;;0.90;0.67;;;14.00;99.90;;;;;;4976643;28;20508;-71
2024/02/04 10:56:31;;;;;;;2.73;1.17;;;13.90;99.90;;;;;;4976245;28;20497;-71
2024/02/04 10:59:00;;;;;;;1.10;0.70;;;13.90;99.90;;;;;;4986201;28;20907;-69
2024/02/04 11:01:26;;;;;;;1.40;0.60;;;14.00;99.90;;;;;;4995597;28;20919;-71
2024/02/04 11:03:53;;;;;;;0.70;0.47;;;13.60;99.90;;;;;;4996046;28;20509;-70
2024/02/04 11:06:20;;;;;;;0.70;0.47;;;13.50;99.90;;;;;;4994004;28;20448;-70
2024/02/04 11:08:46;;;;;;;0.90;0.50;;;13.30;99.90;;;;;;4986681;28;20413;-71
2024/02/04 11:11:12;;;;;;;0.80;0.50;;;13.20;99.90;;;;;;4975924;28;20495;-71
2024/02/04 11:13:41;;;;;;;0.80;0.50;;;13.30;99.90;;;;;;4975708;28;20962;-71
2024/02/04 11:16:39;;;;;;;0.80;0.50;;;13.40;99.90;;;;;;4975877;28;20447;-70
2024/02/04 11:19:26;;;;;;;0.70;0.40;;;13.80;99.90;;;;;;4984990;28;20428;-70
2024/02/04 11:22:13;;;;;;;1.30;0.50;;;14.40;99.90;;;;;;4995497;28;20393;-70
2024/02/04 11:24:48;;;;;;;0.80;0.50;;;15.30;99.90;;;;;;4995331;28;20825;-70
2024/02/04 11:27:14;;;;;;;1.07;0.60;;;16.90;99.90;;;;;;4995052;28;20562;-71
2024/02/04 11:29:39;;;;;;;1.67;0.57;;;17.60;99.90;;;;;;4994382;28;20408;-71
2024/02/04 11:32:06;;;;;;;1.10;0.80;;;17.30;99.90;;;;;;4995025;28;20403;-71
2024/02/04 11:34:33;;;;;;;0.93;0.60;;;16.20;99.90;;;;;;4998648;28;20247;-70
2024/02/04 11:36:59;;;;;;;1.37;0.80;;;15.60;99.90;;;;;;4998955;28;20438;-72
2024/02/04 11:39:26;;;;;;;0.80;0.47;;;15.50;99.90;;;;;;4985456;28;20843;-72
2024/02/04 11:41:51;;;;;;;0.80;0.50;;;15.60;99.90;;;;;;4979897;28;20741;-71
2024/02/04 11:44:22;;;;;;;1.00;0.47;;;15.60;99.90;;;;;;4987232;28;20415;-71
2024/02/04 11:46:48;;;;;;;1.57;0.57;;;15.40;99.90;;;;;;4989230;28;20287;-75
2024/02/04 11:49:19;;;;;;;2.13;1.00;;;15.20;99.90;;;;;;4989178;28;20771;-72
2024/02/04 11:51:48;;;;;;;1.00;0.70;;;15.40;99.90;;;;;;4988020;28;20416;-73
2024/02/04 11:54:16;;;;;;;0.80;0.50;;;15.70;99.90;;;;;;4988416;28;20711;-72
2024/02/04 11:56:43;;;;;;;1.23;0.80;;;16.10;99.90;;;;;;4988753;28;20447;-72
2024/02/04 11:59:09;;;;;;;0.80;0.53;;;16.20;99.90;;;;;;4988788;28;20181;-75
2024/02/04 12:01:36;;;;;;;0.80;0.50;;;15.60;99.90;;;;;;4988192;28;20415;-71
2024/02/04 12:04:15;;;;;;;0.80;0.60;;;15.30;99.90;;;;;;4988551;28;20473;-72
2024/02/04 12:06:42;;;;;;;0.90;0.60;;;14.70;99.90;;;;;;4988353;28;20434;-72
2024/02/04 12:09:11;;;;;;;0.80;0.63;;;14.80;99.90;;;;;;4988416;28;20423;-71
2024/02/04 12:11:41;;;;;;;2.20;1.63;;;14.80;99.90;;;;;;4988607;28;21089;-72
2024/02/04 12:14:07;;;;;;;1.00;0.87;;;15.00;99.90;;;;;;4991535;28;20755;-72
2024/02/04 12:16:36;;;;;;;0.83;0.57;;;14.80;99.90;;;;;;4997195;28;20942;-71
2024/02/04 12:19:05;;;;;;;1.03;0.57;;;14.80;99.90;;;;;;4997318;28;20404;-72
2024/02/04 12:21:32;;;;;;;0.90;0.70;;;14.70;99.90;;;;;;4995774;28;20755;-74
2024/02/04 12:23:59;;;;;;;1.70;1.10;;;14.60;99.90;;;;;;4996424;28;20413;-73
2024/02/04 12:26:25;;;;;;;0.70;0.40;;;14.70;99.90;;;;;;4998127;28;20447;-71
2024/02/04 12:28:51;;;;;;;0.80;0.50;;;14.30;99.90;;;;;;4989268;28;20847;-72
2024/02/04 12:31:20;;;;;;;0.77;0.40;;;14.10;99.90;;;;;;4978434;28;20451;-72
2024/02/04 12:33:54;;;;;;;1.23;0.80;;;13.90;99.90;;;;;;4977739;28;20172;-72
2024/02/04 12:36:20;;;;;;;0.80;0.50;;;13.60;99.90;;;;;;4977113;28;21004;-72
2024/02/04 12:39:03;;;;;;;1.53;0.60;;;13.50;99.90;;;;;;4984973;28;20768;-72
2024/02/04 12:41:32;;;;;;;1.90;0.70;;;13.50;99.90;;;;;;4997170;28;20384;-73
2024/02/04 12:44:00;;;;;;;1.30;0.73;;;13.50;99.90;;;;;;4996580;28;20397;-71
2024/02/04 12:46:26;;;;;;;1.73;1.00;;;13.70;99.90;;;;;;4996722;28;20440;-72